sensor_id;sensor_type;location;lat;lon;timestamp;P1;durP1;ratioP1;P2;durP2;ratioP2
18754;SDS011;35061;47.664;9.166;2023-07-24T00:02:05;7.87;;;6.70;;
18754;SDS011;35061;47.664;9.166;2023-07-24T00:04:33;10.15;;;6.68;;
18754;SDS011;35061;47.664;9.166;2023-07-24T00:07:01;10.10;;;6.82;;
18754;SDS011;35061;47.664;9.166;2023-07-24T00:09:29;8.93;;;6.70;;
18754;SDS011;35061;47.664;9.166;2023-07-24T00:11:57;10.10;;;6.50;;
18754;SDS011;35061;47.664;9.166;2023-07-24T00:14:25;8.82;;;6.50;;
18754;SDS011;35061;47.664;9.166;2023-07-24T00:16:53;9.60;;;7.12;;
18754;SDS011;35061;47.664;9.166;2023-07-24T00:19:21;9.10;;;6.90;;
18754;SDS011;35061;47.664;9.166;2023-07-24T00:21:49;10.20;;;6.40;;
18754;SDS011;35061;47.664;9.166;2023-07-24T00:24:17;9.45;;;7.03;;
18754;SDS011;35061;47.664;9.166;2023-07-24T00:26:45;9.13;;;7.03;;
18754;SDS011;35061;47.664;9.166;2023-07-24T00:29:13;8.68;;;6.65;;
18754;SDS011;35061;47.664;9.166;2023-07-24T00:31:41;9.02;;;6.75;;
18754;SDS011;35061;47.664;9.166;2023-07-24T00:34:09;9.32;;;6.55;;
18754;SDS011;35061;47.664;9.166;2023-07-24T00:36:37;10.60;;;7.20;;
18754;SDS011;35061;47.664;9.166;2023-07-24T00:39:05;11.07;;;7.05;;
18754;SDS011;35061;47.664;9.166;2023-07-24T00:41:33;9.82;;;7.32;;
18754;SDS011;35061;47.664;9.166;2023-07-24T00:44:01;11.57;;;7.55;;
18754;SDS011;35061;47.664;9.166;2023-07-24T00:46:29;8.43;;;6.47;;
18754;SDS011;35061;47.664;9.166;2023-07-24T00:49:00;10.50;;;6.75;;
18754;SDS011;35061;47.664;9.166;2023-07-24T00:51:30;14.07;;;8.20;;
18754;SDS011;35061;47.664;9.166;2023-07-24T00:53:59;9.23;;;7.03;;
18754;SDS011;35061;47.664;9.166;2023-07-24T00:56:29;10.18;;;7.82;;
18754;SDS011;35061;47.664;9.166;2023-07-24T00:58:59;9.57;;;6.80;;
18754;SDS011;35061;47.664;9.166;2023-07-24T01:01:28;10.00;;;7.22;;
18754;SDS011;35061;47.664;9.166;2023-07-24T01:03:57;9.40;;;7.18;;
18754;SDS011;35061;47.664;9.166;2023-07-24T01:06:25;9.82;;;7.75;;
18754;SDS011;35061;47.664;9.166;2023-07-24T01:08:54;10.23;;;7.93;;
18754;SDS011;35061;47.664;9.166;2023-07-24T01:11:27;10.48;;;7.62;;
18754;SDS011;35061;47.664;9.166;2023-07-24T01:14:13;9.45;;;7.10;;
18754;SDS011;35061;47.664;9.166;2023-07-24T01:16:50;10.98;;;7.20;;
18754;SDS011;35061;47.664;9.166;2023-07-24T01:27:27;11.80;;;7.95;;
18754;SDS011;35061;47.664;9.166;2023-07-24T01:29:55;11.00;;;7.50;;
18754;SDS011;35061;47.664;9.166;2023-07-24T01:32:23;11.55;;;7.45;;
18754;SDS011;35061;47.664;9.166;2023-07-24T01:34:51;10.90;;;7.80;;
18754;SDS011;35061;47.664;9.166;2023-07-24T01:37:20;10.45;;;7.65;;
18754;SDS011;35061;47.664;9.166;2023-07-24T01:39:49;9.55;;;6.97;;
18754;SDS011;35061;47.664;9.166;2023-07-24T01:42:18;10.27;;;7.62;;
18754;SDS011;35061;47.664;9.166;2023-07-24T01:44:50;11.27;;;8.30;;
18754;SDS011;35061;47.664;9.166;2023-07-24T01:47:19;11.68;;;7.97;;
18754;SDS011;35061;47.664;9.166;2023-07-24T01:49:48;9.25;;;7.00;;
18754;SDS011;35061;47.664;9.166;2023-07-24T01:52:16;11.82;;;7.50;;
18754;SDS011;35061;47.664;9.166;2023-07-24T01:54:45;12.13;;;8.15;;
18754;SDS011;35061;47.664;9.166;2023-07-24T01:57:13;10.60;;;7.80;;
18754;SDS011;35061;47.664;9.166;2023-07-24T01:59:41;10.13;;;7.18;;
18754;SDS011;35061;47.664;9.166;2023-07-24T02:02:09;10.70;;;7.12;;
18754;SDS011;35061;47.664;9.166;2023-07-24T02:04:36;9.50;;;7.15;;
18754;SDS011;35061;47.664;9.166;2023-07-24T02:07:04;12.48;;;7.72;;
18754;SDS011;35061;47.664;9.166;2023-07-24T02:09:32;9.95;;;7.40;;
18754;SDS011;35061;47.664;9.166;2023-07-24T02:12:00;11.30;;;7.93;;
18754;SDS011;35061;47.664;9.166;2023-07-24T02:14:29;9.00;;;7.22;;
18754;SDS011;35061;47.664;9.166;2023-07-24T02:16:57;11.52;;;7.65;;
18754;SDS011;35061;47.664;9.166;2023-07-24T02:19:25;9.68;;;7.95;;
18754;SDS011;35061;47.664;9.166;2023-07-24T02:21:53;11.65;;;8.15;;
18754;SDS011;35061;47.664;9.166;2023-07-24T02:24:21;11.82;;;8.10;;
18754;SDS011;35061;47.664;9.166;2023-07-24T02:26:49;12.23;;;8.02;;
18754;SDS011;35061;47.664;9.166;2023-07-24T02:29:17;9.38;;;6.72;;
18754;SDS011;35061;47.664;9.166;2023-07-24T02:31:45;10.60;;;7.50;;
18754;SDS011;35061;47.664;9.166;2023-07-24T02:34:13;10.70;;;7.07;;
18754;SDS011;35061;47.664;9.166;2023-07-24T02:36:41;10.48;;;7.90;;
18754;SDS011;35061;47.664;9.166;2023-07-24T02:39:09;9.65;;;6.97;;
18754;SDS011;35061;47.664;9.166;2023-07-24T02:41:37;11.68;;;8.00;;
18754;SDS011;35061;47.664;9.166;2023-07-24T02:44:05;9.68;;;7.72;;
18754;SDS011;35061;47.664;9.166;2023-07-24T02:46:33;9.73;;;7.57;;
18754;SDS011;35061;47.664;9.166;2023-07-24T02:49:00;9.43;;;7.37;;
18754;SDS011;35061;47.664;9.166;2023-07-24T02:51:29;10.13;;;8.57;;
18754;SDS011;35061;47.664;9.166;2023-07-24T02:53:57;13.10;;;7.82;;
18754;SDS011;35061;47.664;9.166;2023-07-24T02:56:25;10.20;;;8.20;;
18754;SDS011;35061;47.664;9.166;2023-07-24T02:58:53;10.05;;;7.62;;
18754;SDS011;35061;47.664;9.166;2023-07-24T03:01:21;10.40;;;7.87;;
18754;SDS011;35061;47.664;9.166;2023-07-24T03:03:49;7.12;;;6.30;;
18754;SDS011;35061;47.664;9.166;2023-07-24T03:06:17;10.93;;;7.50;;
18754;SDS011;35061;47.664;9.166;2023-07-24T03:08:45;11.95;;;7.93;;
18754;SDS011;35061;47.664;9.166;2023-07-24T03:11:13;10.77;;;7.90;;
18754;SDS011;35061;47.664;9.166;2023-07-24T03:13:41;10.73;;;7.72;;
18754;SDS011;35061;47.664;9.166;2023-07-24T03:16:09;10.50;;;7.93;;
18754;SDS011;35061;47.664;9.166;2023-07-24T03:18:37;11.35;;;7.78;;
18754;SDS011;35061;47.664;9.166;2023-07-24T03:21:05;11.63;;;8.13;;
18754;SDS011;35061;47.664;9.166;2023-07-24T03:23:33;12.48;;;7.82;;
18754;SDS011;35061;47.664;9.166;2023-07-24T03:26:01;9.20;;;7.50;;
18754;SDS011;35061;47.664;9.166;2023-07-24T03:28:29;9.20;;;7.37;;
18754;SDS011;35061;47.664;9.166;2023-07-24T03:30:57;11.63;;;7.85;;
18754;SDS011;35061;47.664;9.166;2023-07-24T03:33:25;12.93;;;7.93;;
18754;SDS011;35061;47.664;9.166;2023-07-24T03:35:53;11.20;;;8.32;;
18754;SDS011;35061;47.664;9.166;2023-07-24T03:38:21;11.00;;;8.52;;
18754;SDS011;35061;47.664;9.166;2023-07-24T03:40:49;10.13;;;7.70;;
18754;SDS011;35061;47.664;9.166;2023-07-24T03:43:17;9.70;;;6.93;;
18754;SDS011;35061;47.664;9.166;2023-07-24T03:45:45;12.40;;;8.00;;
18754;SDS011;35061;47.664;9.166;2023-07-24T03:48:13;11.20;;;8.13;;
18754;SDS011;35061;47.664;9.166;2023-07-24T03:50:41;11.10;;;8.43;;
18754;SDS011;35061;47.664;9.166;2023-07-24T03:53:09;10.27;;;7.62;;
18754;SDS011;35061;47.664;9.166;2023-07-24T03:55:36;12.05;;;7.95;;
18754;SDS011;35061;47.664;9.166;2023-07-24T03:58:04;10.05;;;8.20;;
18754;SDS011;35061;47.664;9.166;2023-07-24T04:00:32;12.27;;;7.43;;
18754;SDS011;35061;47.664;9.166;2023-07-24T04:03:01;12.10;;;8.55;;
18754;SDS011;35061;47.664;9.166;2023-07-24T04:05:29;11.90;;;8.57;;
18754;SDS011;35061;47.664;9.166;2023-07-24T04:07:57;9.95;;;7.03;;
18754;SDS011;35061;47.664;9.166;2023-07-24T04:10:25;10.57;;;8.07;;
18754;SDS011;35061;47.664;9.166;2023-07-24T04:12:53;11.00;;;8.27;;
18754;SDS011;35061;47.664;9.166;2023-07-24T04:15:21;9.27;;;7.90;;
18754;SDS011;35061;47.664;9.166;2023-07-24T04:17:49;12.10;;;8.35;;
18754;SDS011;35061;47.664;9.166;2023-07-24T04:20:17;9.60;;;7.85;;
18754;SDS011;35061;47.664;9.166;2023-07-24T04:22:45;9.13;;;7.62;;
18754;SDS011;35061;47.664;9.166;2023-07-24T04:25:13;12.02;;;8.25;;
18754;SDS011;35061;47.664;9.166;2023-07-24T04:27:41;11.32;;;8.77;;
18754;SDS011;35061;47.664;9.166;2023-07-24T04:30:09;9.80;;;8.15;;
18754;SDS011;35061;47.664;9.166;2023-07-24T04:32:37;10.40;;;8.65;;
18754;SDS011;35061;47.664;9.166;2023-07-24T04:35:05;12.48;;;8.45;;
18754;SDS011;35061;47.664;9.166;2023-07-24T04:37:34;11.15;;;8.65;;
18754;SDS011;35061;47.664;9.166;2023-07-24T04:40:02;10.05;;;7.82;;
18754;SDS011;35061;47.664;9.166;2023-07-24T04:42:30;11.52;;;9.15;;
18754;SDS011;35061;47.664;9.166;2023-07-24T04:44:58;10.52;;;7.45;;
18754;SDS011;35061;47.664;9.166;2023-07-24T04:47:26;10.95;;;7.87;;
18754;SDS011;35061;47.664;9.166;2023-07-24T04:49:54;11.75;;;8.57;;
18754;SDS011;35061;47.664;9.166;2023-07-24T04:52:23;10.68;;;8.18;;
18754;SDS011;35061;47.664;9.166;2023-07-24T04:54:51;12.98;;;8.30;;
18754;SDS011;35061;47.664;9.166;2023-07-24T04:57:19;12.40;;;8.48;;
18754;SDS011;35061;47.664;9.166;2023-07-24T04:59:46;11.15;;;8.13;;
18754;SDS011;35061;47.664;9.166;2023-07-24T05:02:14;10.65;;;8.23;;
18754;SDS011;35061;47.664;9.166;2023-07-24T05:04:42;14.07;;;8.57;;
18754;SDS011;35061;47.664;9.166;2023-07-24T05:07:10;10.48;;;7.28;;
18754;SDS011;35061;47.664;9.166;2023-07-24T05:09:38;11.95;;;9.00;;
18754;SDS011;35061;47.664;9.166;2023-07-24T05:12:06;10.57;;;8.13;;
18754;SDS011;35061;47.664;9.166;2023-07-24T05:14:34;10.90;;;7.97;;
18754;SDS011;35061;47.664;9.166;2023-07-24T05:17:02;18.48;;;9.07;;
18754;SDS011;35061;47.664;9.166;2023-07-24T05:19:31;12.55;;;8.90;;
18754;SDS011;35061;47.664;9.166;2023-07-24T05:21:59;13.68;;;9.77;;
18754;SDS011;35061;47.664;9.166;2023-07-24T05:24:27;12.10;;;9.30;;
18754;SDS011;35061;47.664;9.166;2023-07-24T05:26:55;12.40;;;9.00;;
18754;SDS011;35061;47.664;9.166;2023-07-24T05:29:22;14.85;;;9.93;;
18754;SDS011;35061;47.664;9.166;2023-07-24T05:31:50;15.48;;;8.55;;
18754;SDS011;35061;47.664;9.166;2023-07-24T05:34:18;10.65;;;7.15;;
18754;SDS011;35061;47.664;9.166;2023-07-24T05:36:46;10.70;;;6.72;;
18754;SDS011;35061;47.664;9.166;2023-07-24T05:39:14;8.25;;;6.22;;
18754;SDS011;35061;47.664;9.166;2023-07-24T05:41:47;8.00;;;6.55;;
18754;SDS011;35061;47.664;9.166;2023-07-24T05:44:15;7.75;;;5.62;;
18754;SDS011;35061;47.664;9.166;2023-07-24T05:46:43;7.85;;;5.65;;
18754;SDS011;35061;47.664;9.166;2023-07-24T05:49:11;8.77;;;5.78;;
18754;SDS011;35061;47.664;9.166;2023-07-24T05:51:39;10.82;;;5.72;;
18754;SDS011;35061;47.664;9.166;2023-07-24T05:54:07;6.65;;;5.35;;
18754;SDS011;35061;47.664;9.166;2023-07-24T05:56:35;9.18;;;5.82;;
18754;SDS011;35061;47.664;9.166;2023-07-24T05:59:06;7.78;;;5.45;;
18754;SDS011;35061;47.664;9.166;2023-07-24T06:01:34;8.27;;;6.30;;
18754;SDS011;35061;47.664;9.166;2023-07-24T06:04:02;9.32;;;5.50;;
18754;SDS011;35061;47.664;9.166;2023-07-24T06:06:30;8.70;;;5.82;;
18754;SDS011;35061;47.664;9.166;2023-07-24T06:08:58;9.35;;;5.70;;
18754;SDS011;35061;47.664;9.166;2023-07-24T06:11:26;7.85;;;5.62;;
18754;SDS011;35061;47.664;9.166;2023-07-24T06:13:55;8.13;;;5.20;;
18754;SDS011;35061;47.664;9.166;2023-07-24T06:16:22;8.32;;;6.28;;
18754;SDS011;35061;47.664;9.166;2023-07-24T06:18:50;10.60;;;5.47;;
18754;SDS011;35061;47.664;9.166;2023-07-24T06:21:18;12.25;;;5.75;;
18754;SDS011;35061;47.664;9.166;2023-07-24T06:23:46;9.15;;;5.55;;
18754;SDS011;35061;47.664;9.166;2023-07-24T06:26:14;8.57;;;5.65;;
18754;SDS011;35061;47.664;9.166;2023-07-24T06:28:42;7.90;;;6.53;;
18754;SDS011;35061;47.664;9.166;2023-07-24T06:31:10;8.88;;;6.18;;
18754;SDS011;35061;47.664;9.166;2023-07-24T06:33:38;8.45;;;5.60;;
18754;SDS011;35061;47.664;9.166;2023-07-24T06:36:09;7.32;;;5.95;;
18754;SDS011;35061;47.664;9.166;2023-07-24T06:38:38;9.88;;;5.65;;
18754;SDS011;35061;47.664;9.166;2023-07-24T06:41:06;8.48;;;5.50;;
18754;SDS011;35061;47.664;9.166;2023-07-24T06:43:34;6.50;;;5.25;;
18754;SDS011;35061;47.664;9.166;2023-07-24T06:46:02;7.70;;;5.37;;
18754;SDS011;35061;47.664;9.166;2023-07-24T06:48:30;6.97;;;5.50;;
18754;SDS011;35061;47.664;9.166;2023-07-24T06:50:58;7.03;;;5.32;;
18754;SDS011;35061;47.664;9.166;2023-07-24T06:53:26;8.18;;;5.40;;
18754;SDS011;35061;47.664;9.166;2023-07-24T06:55:54;8.05;;;5.60;;
18754;SDS011;35061;47.664;9.166;2023-07-24T06:58:22;7.37;;;5.37;;
18754;SDS011;35061;47.664;9.166;2023-07-24T07:00:50;6.32;;;4.82;;
18754;SDS011;35061;47.664;9.166;2023-07-24T07:03:18;6.20;;;4.75;;
18754;SDS011;35061;47.664;9.166;2023-07-24T07:05:46;6.57;;;4.28;;
18754;SDS011;35061;47.664;9.166;2023-07-24T07:08:13;6.75;;;5.15;;
18754;SDS011;35061;47.664;9.166;2023-07-24T07:10:42;7.82;;;4.22;;
18754;SDS011;35061;47.664;9.166;2023-07-24T07:13:10;9.50;;;4.68;;
18754;SDS011;35061;47.664;9.166;2023-07-24T07:15:37;5.87;;;4.18;;
18754;SDS011;35061;47.664;9.166;2023-07-24T07:18:06;6.37;;;4.22;;
18754;SDS011;35061;47.664;9.166;2023-07-24T07:20:34;6.95;;;4.47;;
18754;SDS011;35061;47.664;9.166;2023-07-24T07:23:02;5.75;;;4.07;;
18754;SDS011;35061;47.664;9.166;2023-07-24T07:25:30;5.97;;;4.32;;
18754;SDS011;35061;47.664;9.166;2023-07-24T07:27:58;7.15;;;4.45;;
18754;SDS011;35061;47.664;9.166;2023-07-24T07:30:25;5.72;;;4.53;;
18754;SDS011;35061;47.664;9.166;2023-07-24T07:32:53;6.53;;;4.50;;
18754;SDS011;35061;47.664;9.166;2023-07-24T07:35:21;6.82;;;4.78;;
18754;SDS011;35061;47.664;9.166;2023-07-24T07:37:49;6.53;;;4.85;;
18754;SDS011;35061;47.664;9.166;2023-07-24T07:40:17;7.65;;;4.90;;
18754;SDS011;35061;47.664;9.166;2023-07-24T07:42:45;10.73;;;5.07;;
18754;SDS011;35061;47.664;9.166;2023-07-24T07:45:13;6.45;;;4.37;;
18754;SDS011;35061;47.664;9.166;2023-07-24T07:47:41;6.78;;;5.07;;
18754;SDS011;35061;47.664;9.166;2023-07-24T07:50:09;9.18;;;4.90;;
18754;SDS011;35061;47.664;9.166;2023-07-24T07:52:38;6.80;;;4.35;;
18754;SDS011;35061;47.664;9.166;2023-07-24T07:55:06;7.32;;;4.60;;
18754;SDS011;35061;47.664;9.166;2023-07-24T07:57:35;5.93;;;5.07;;
18754;SDS011;35061;47.664;9.166;2023-07-24T08:00:06;8.00;;;5.07;;
18754;SDS011;35061;47.664;9.166;2023-07-24T08:02:34;7.30;;;4.95;;
18754;SDS011;35061;47.664;9.166;2023-07-24T08:05:02;6.30;;;4.93;;
18754;SDS011;35061;47.664;9.166;2023-07-24T08:07:41;5.40;;;4.25;;
18754;SDS011;35061;47.664;9.166;2023-07-24T08:10:09;6.60;;;4.95;;
18754;SDS011;35061;47.664;9.166;2023-07-24T08:12:37;6.10;;;5.15;;
18754;SDS011;35061;47.664;9.166;2023-07-24T08:15:05;6.82;;;4.80;;
18754;SDS011;35061;47.664;9.166;2023-07-24T08:17:33;6.12;;;4.60;;
18754;SDS011;35061;47.664;9.166;2023-07-24T08:20:01;8.73;;;5.35;;
18754;SDS011;35061;47.664;9.166;2023-07-24T08:22:30;8.45;;;4.95;;
18754;SDS011;35061;47.664;9.166;2023-07-24T08:24:58;5.07;;;4.57;;
18754;SDS011;35061;47.664;9.166;2023-07-24T08:27:26;6.55;;;4.95;;
18754;SDS011;35061;47.664;9.166;2023-07-24T08:29:54;6.65;;;4.80;;
18754;SDS011;35061;47.664;9.166;2023-07-24T08:32:22;7.47;;;5.10;;
18754;SDS011;35061;47.664;9.166;2023-07-24T08:34:50;6.32;;;4.70;;
18754;SDS011;35061;47.664;9.166;2023-07-24T08:37:18;5.97;;;4.78;;
18754;SDS011;35061;47.664;9.166;2023-07-24T08:39:46;5.70;;;4.65;;
18754;SDS011;35061;47.664;9.166;2023-07-24T08:42:14;6.30;;;5.20;;
18754;SDS011;35061;47.664;9.166;2023-07-24T08:44:42;5.93;;;4.93;;
18754;SDS011;35061;47.664;9.166;2023-07-24T08:47:11;6.37;;;4.68;;
18754;SDS011;35061;47.664;9.166;2023-07-24T08:49:41;7.87;;;5.00;;
18754;SDS011;35061;47.664;9.166;2023-07-24T08:52:10;5.75;;;4.60;;
18754;SDS011;35061;47.664;9.166;2023-07-24T08:54:56;6.85;;;5.30;;
18754;SDS011;35061;47.664;9.166;2023-07-24T08:57:27;6.03;;;4.97;;
18754;SDS011;35061;47.664;9.166;2023-07-24T08:59:55;6.32;;;4.55;;
18754;SDS011;35061;47.664;9.166;2023-07-24T09:02:23;6.25;;;4.85;;
18754;SDS011;35061;47.664;9.166;2023-07-24T09:04:51;5.18;;;4.65;;
18754;SDS011;35061;47.664;9.166;2023-07-24T09:07:19;6.93;;;5.15;;
18754;SDS011;35061;47.664;9.166;2023-07-24T09:09:47;5.20;;;4.70;;
18754;SDS011;35061;47.664;9.166;2023-07-24T09:12:18;5.62;;;4.30;;
18754;SDS011;35061;47.664;9.166;2023-07-24T09:14:46;7.80;;;5.00;;
18754;SDS011;35061;47.664;9.166;2023-07-24T09:17:14;6.20;;;5.10;;
18754;SDS011;35061;47.664;9.166;2023-07-24T09:19:42;5.95;;;4.60;;
18754;SDS011;35061;47.664;9.166;2023-07-24T09:22:12;7.95;;;5.05;;
18754;SDS011;35061;47.664;9.166;2023-07-24T09:24:51;5.82;;;5.00;;
18754;SDS011;35061;47.664;9.166;2023-07-24T09:27:20;5.82;;;4.70;;
18754;SDS011;35061;47.664;9.166;2023-07-24T09:29:51;6.60;;;4.97;;
18754;SDS011;35061;47.664;9.166;2023-07-24T09:32:23;6.78;;;5.20;;
18754;SDS011;35061;47.664;9.166;2023-07-24T09:34:55;7.22;;;4.80;;
18754;SDS011;35061;47.664;9.166;2023-07-24T09:37:27;7.85;;;5.18;;
18754;SDS011;35061;47.664;9.166;2023-07-24T09:40:04;5.57;;;4.47;;
18754;SDS011;35061;47.664;9.166;2023-07-24T09:42:34;6.50;;;4.75;;
18754;SDS011;35061;47.664;9.166;2023-07-24T09:45:23;6.07;;;4.47;;
18754;SDS011;35061;47.664;9.166;2023-07-24T09:47:53;5.40;;;4.43;;
18754;SDS011;35061;47.664;9.166;2023-07-24T09:50:30;7.22;;;4.45;;
18754;SDS011;35061;47.664;9.166;2023-07-24T09:52:59;6.55;;;5.07;;
18754;SDS011;35061;47.664;9.166;2023-07-24T09:55:30;6.40;;;4.40;;
18754;SDS011;35061;47.664;9.166;2023-07-24T09:58:06;5.28;;;4.45;;
18754;SDS011;35061;47.664;9.166;2023-07-24T10:00:35;5.80;;;4.70;;
18754;SDS011;35061;47.664;9.166;2023-07-24T10:03:03;7.53;;;6.15;;
18754;SDS011;35061;47.664;9.166;2023-07-24T10:05:32;6.15;;;4.82;;
18754;SDS011;35061;47.664;9.166;2023-07-24T10:08:00;5.90;;;4.65;;
18754;SDS011;35061;47.664;9.166;2023-07-24T10:10:29;5.57;;;4.37;;
18754;SDS011;35061;47.664;9.166;2023-07-24T10:12:59;5.85;;;4.80;;
18754;SDS011;35061;47.664;9.166;2023-07-24T10:15:28;7.07;;;4.32;;
18754;SDS011;35061;47.664;9.166;2023-07-24T10:18:01;6.95;;;4.72;;
18754;SDS011;35061;47.664;9.166;2023-07-24T10:20:34;6.65;;;4.72;;
18754;SDS011;35061;47.664;9.166;2023-07-24T10:23:03;5.87;;;4.82;;
18754;SDS011;35061;47.664;9.166;2023-07-24T10:25:32;5.05;;;4.55;;
18754;SDS011;35061;47.664;9.166;2023-07-24T10:28:08;6.78;;;5.20;;
18754;SDS011;35061;47.664;9.166;2023-07-24T10:30:40;6.50;;;4.80;;
18754;SDS011;35061;47.664;9.166;2023-07-24T10:33:10;5.60;;;4.87;;
18754;SDS011;35061;47.664;9.166;2023-07-24T10:35:43;5.72;;;5.12;;
18754;SDS011;35061;47.664;9.166;2023-07-24T10:38:14;4.37;;;3.95;;
18754;SDS011;35061;47.664;9.166;2023-07-24T10:40:44;6.15;;;4.90;;
18754;SDS011;35061;47.664;9.166;2023-07-24T10:43:18;5.32;;;4.62;;
18754;SDS011;35061;47.664;9.166;2023-07-24T10:45:48;7.95;;;5.20;;
18754;SDS011;35061;47.664;9.166;2023-07-24T10:48:23;6.57;;;5.10;;
18754;SDS011;35061;47.664;9.166;2023-07-24T10:50:53;7.68;;;5.28;;
18754;SDS011;35061;47.664;9.166;2023-07-24T10:53:21;6.30;;;4.97;;
18754;SDS011;35061;47.664;9.166;2023-07-24T10:55:50;7.20;;;5.47;;
18754;SDS011;35061;47.664;9.166;2023-07-24T10:58:19;7.20;;;5.70;;
18754;SDS011;35061;47.664;9.166;2023-07-24T11:00:47;8.52;;;5.65;;
18754;SDS011;35061;47.664;9.166;2023-07-24T11:03:16;10.32;;;5.03;;
18754;SDS011;35061;47.664;9.166;2023-07-24T11:05:45;8.93;;;6.45;;
18754;SDS011;35061;47.664;9.166;2023-07-24T11:08:15;6.32;;;4.90;;
18754;SDS011;35061;47.664;9.166;2023-07-24T11:10:45;8.52;;;5.62;;
18754;SDS011;35061;47.664;9.166;2023-07-24T11:13:17;6.37;;;4.82;;
18754;SDS011;35061;47.664;9.166;2023-07-24T11:15:47;7.25;;;5.45;;
18754;SDS011;35061;47.664;9.166;2023-07-24T11:18:16;6.00;;;4.62;;
18754;SDS011;35061;47.664;9.166;2023-07-24T11:20:45;6.60;;;4.85;;
18754;SDS011;35061;47.664;9.166;2023-07-24T11:23:17;6.45;;;4.00;;
18754;SDS011;35061;47.664;9.166;2023-07-24T11:25:46;5.93;;;4.20;;
18754;SDS011;35061;47.664;9.166;2023-07-24T11:28:14;4.50;;;3.95;;
18754;SDS011;35061;47.664;9.166;2023-07-24T11:30:42;4.78;;;2.80;;
18754;SDS011;35061;47.664;9.166;2023-07-24T11:33:12;3.00;;;2.62;;
18754;SDS011;35061;47.664;9.166;2023-07-24T11:35:45;2.60;;;2.40;;
18754;SDS011;35061;47.664;9.166;2023-07-24T11:38:13;4.18;;;2.28;;
18754;SDS011;35061;47.664;9.166;2023-07-24T11:40:42;5.07;;;2.22;;
18754;SDS011;35061;47.664;9.166;2023-07-24T11:43:19;1.90;;;1.70;;
18754;SDS011;35061;47.664;9.166;2023-07-24T11:45:49;2.83;;;2.25;;
18754;SDS011;35061;47.664;9.166;2023-07-24T11:48:22;2.75;;;1.98;;
18754;SDS011;35061;47.664;9.166;2023-07-24T11:50:52;2.22;;;1.90;;
18754;SDS011;35061;47.664;9.166;2023-07-24T11:53:25;2.75;;;2.20;;
18754;SDS011;35061;47.664;9.166;2023-07-24T11:55:58;2.72;;;2.03;;
18754;SDS011;35061;47.664;9.166;2023-07-24T11:58:27;3.22;;;2.15;;
18754;SDS011;35061;47.664;9.166;2023-07-24T12:00:56;2.42;;;1.92;;
18754;SDS011;35061;47.664;9.166;2023-07-24T12:03:25;2.67;;;1.80;;
18754;SDS011;35061;47.664;9.166;2023-07-24T12:05:55;3.22;;;2.17;;
18754;SDS011;35061;47.664;9.166;2023-07-24T12:08:31;2.50;;;2.15;;
18754;SDS011;35061;47.664;9.166;2023-07-24T12:11:14;2.67;;;2.10;;
18754;SDS011;35061;47.664;9.166;2023-07-24T12:13:44;2.55;;;2.00;;
18754;SDS011;35061;47.664;9.166;2023-07-24T12:16:13;3.62;;;2.40;;
18754;SDS011;35061;47.664;9.166;2023-07-24T12:18:41;2.20;;;1.95;;
18754;SDS011;35061;47.664;9.166;2023-07-24T12:21:09;2.20;;;2.00;;
18754;SDS011;35061;47.664;9.166;2023-07-24T12:23:37;2.55;;;1.92;;
18754;SDS011;35061;47.664;9.166;2023-07-24T12:26:05;1.95;;;1.62;;
18754;SDS011;35061;47.664;9.166;2023-07-24T12:28:33;1.87;;;1.62;;
18754;SDS011;35061;47.664;9.166;2023-07-24T12:31:01;2.65;;;1.83;;
18754;SDS011;35061;47.664;9.166;2023-07-24T12:33:30;1.95;;;1.65;;
18754;SDS011;35061;47.664;9.166;2023-07-24T12:35:58;1.90;;;1.70;;
18754;SDS011;35061;47.664;9.166;2023-07-24T12:38:25;2.37;;;1.70;;
18754;SDS011;35061;47.664;9.166;2023-07-24T12:40:53;1.95;;;1.60;;
18754;SDS011;35061;47.664;9.166;2023-07-24T12:43:21;2.17;;;1.95;;
18754;SDS011;35061;47.664;9.166;2023-07-24T12:45:49;2.15;;;1.73;;
18754;SDS011;35061;47.664;9.166;2023-07-24T12:48:17;2.37;;;2.10;;
18754;SDS011;35061;47.664;9.166;2023-07-24T12:50:45;3.03;;;2.17;;
18754;SDS011;35061;47.664;9.166;2023-07-24T12:53:13;3.00;;;1.92;;
18754;SDS011;35061;47.664;9.166;2023-07-24T12:56:00;3.08;;;2.15;;
18754;SDS011;35061;47.664;9.166;2023-07-24T12:58:28;1.95;;;1.52;;
18754;SDS011;35061;47.664;9.166;2023-07-24T13:00:56;2.00;;;1.80;;
18754;SDS011;35061;47.664;9.166;2023-07-24T13:03:24;3.08;;;2.30;;
18754;SDS011;35061;47.664;9.166;2023-07-24T13:05:53;3.58;;;2.40;;
18754;SDS011;35061;47.664;9.166;2023-07-24T13:08:20;2.15;;;1.87;;
18754;SDS011;35061;47.664;9.166;2023-07-24T13:10:49;2.92;;;2.17;;
18754;SDS011;35061;47.664;9.166;2023-07-24T13:13:17;4.47;;;2.15;;
18754;SDS011;35061;47.664;9.166;2023-07-24T13:15:45;2.28;;;2.08;;
18754;SDS011;35061;47.664;9.166;2023-07-24T13:18:15;2.95;;;2.17;;
18754;SDS011;35061;47.664;9.166;2023-07-24T13:20:54;3.72;;;2.17;;
18754;SDS011;35061;47.664;9.166;2023-07-24T13:23:23;3.10;;;2.35;;
18754;SDS011;35061;47.664;9.166;2023-07-24T13:25:51;2.85;;;2.28;;
18754;SDS011;35061;47.664;9.166;2023-07-24T13:28:20;2.70;;;2.05;;
18754;SDS011;35061;47.664;9.166;2023-07-24T13:30:48;3.30;;;2.50;;
18754;SDS011;35061;47.664;9.166;2023-07-24T13:33:16;3.60;;;2.12;;
18754;SDS011;35061;47.664;9.166;2023-07-24T13:35:44;2.65;;;2.10;;
18754;SDS011;35061;47.664;9.166;2023-07-24T13:38:12;2.47;;;2.28;;
18754;SDS011;35061;47.664;9.166;2023-07-24T13:40:40;3.03;;;2.28;;
18754;SDS011;35061;47.664;9.166;2023-07-24T13:43:08;2.17;;;1.95;;
18754;SDS011;35061;47.664;9.166;2023-07-24T13:45:37;2.28;;;2.08;;
18754;SDS011;35061;47.664;9.166;2023-07-24T13:48:05;2.92;;;1.90;;
18754;SDS011;35061;47.664;9.166;2023-07-24T13:50:33;2.50;;;2.25;;
18754;SDS011;35061;47.664;9.166;2023-07-24T13:53:01;2.30;;;2.10;;
18754;SDS011;35061;47.664;9.166;2023-07-24T13:55:29;2.00;;;1.80;;
18754;SDS011;35061;47.664;9.166;2023-07-24T13:57:57;2.47;;;1.58;;
18754;SDS011;35061;47.664;9.166;2023-07-24T14:00:25;2.03;;;1.80;;
18754;SDS011;35061;47.664;9.166;2023-07-24T14:02:53;3.15;;;2.22;;
18754;SDS011;35061;47.664;9.166;2023-07-24T14:05:21;3.28;;;2.30;;
18754;SDS011;35061;47.664;9.166;2023-07-24T14:07:49;2.10;;;1.85;;
18754;SDS011;35061;47.664;9.166;2023-07-24T14:10:17;2.67;;;2.25;;
18754;SDS011;35061;47.664;9.166;2023-07-24T14:12:45;2.62;;;2.30;;
18754;SDS011;35061;47.664;9.166;2023-07-24T14:15:14;3.10;;;2.25;;
18754;SDS011;35061;47.664;9.166;2023-07-24T14:17:42;2.90;;;2.10;;
18754;SDS011;35061;47.664;9.166;2023-07-24T14:20:10;1.70;;;1.60;;
18754;SDS011;35061;47.664;9.166;2023-07-24T14:22:38;2.75;;;2.33;;
18754;SDS011;35061;47.664;9.166;2023-07-24T14:25:07;2.30;;;2.10;;
18754;SDS011;35061;47.664;9.166;2023-07-24T14:27:35;2.80;;;1.95;;
18754;SDS011;35061;47.664;9.166;2023-07-24T14:30:03;3.33;;;1.67;;
18754;SDS011;35061;47.664;9.166;2023-07-24T14:32:31;2.75;;;2.00;;
18754;SDS011;35061;47.664;9.166;2023-07-24T14:34:59;2.97;;;2.10;;
18754;SDS011;35061;47.664;9.166;2023-07-24T14:37:27;3.95;;;2.42;;
18754;SDS011;35061;47.664;9.166;2023-07-24T14:39:55;2.78;;;1.98;;
18754;SDS011;35061;47.664;9.166;2023-07-24T14:42:23;2.78;;;2.10;;
18754;SDS011;35061;47.664;9.166;2023-07-24T14:44:51;2.25;;;1.70;;
18754;SDS011;35061;47.664;9.166;2023-07-24T14:47:19;1.98;;;1.70;;
18754;SDS011;35061;47.664;9.166;2023-07-24T14:49:47;2.95;;;2.00;;
18754;SDS011;35061;47.664;9.166;2023-07-24T14:52:15;1.87;;;1.75;;
18754;SDS011;35061;47.664;9.166;2023-07-24T14:54:43;2.35;;;2.08;;
18754;SDS011;35061;47.664;9.166;2023-07-24T14:57:11;2.55;;;2.35;;
18754;SDS011;35061;47.664;9.166;2023-07-24T14:59:50;2.72;;;2.08;;
18754;SDS011;35061;47.664;9.166;2023-07-24T15:02:18;2.45;;;1.80;;